Time;durP1;ratioP1;P1;durP2;ratioP2;P2;SDS_P1;SDS_P2;PMS_P1;PMS_P2;Temp;Humidity;BMP_temperature;BMP_pressure;BME280_temperature;BME280_humidity;BME280_pressure;Samples;Min_cycle;Max_cycle;Signal;HPM_P1;HPM_P2
2022/09/09 00:02:23;;;;;;;;;;;12.60;99.90;;;;;;5044825;28;19924;-80
2022/09/09 00:05:00;;;;;;;;;;;12.60;99.90;;;;;;5045321;28;19916;-83
2022/09/09 00:07:36;;;;;;;;;;;12.60;99.90;;;;;;5047160;28;19921;-81
2022/09/09 00:10:03;;;;;;;;;;;12.60;99.90;;;;;;5027992;28;20056;-80
2022/09/09 00:12:50;;;;;;;;;;;12.60;99.90;;;;;;5030162;28;19917;-81
2022/09/09 00:15:20;;;;;;;;;;;12.50;99.90;;;;;;5046714;28;19917;-82
2022/09/09 00:17:46;;;;;;;;;;;12.50;99.90;;;;;;5053417;28;20575;-82
2022/09/09 00:20:19;;;;;;;;;;;12.50;99.90;;;;;;5050858;28;19919;-82
2022/09/09 00:22:47;;;;;;;;;;;12.50;99.90;;;;;;5034847;28;19919;-81
2022/09/09 00:25:16;;;;;;;;;;;12.50;99.90;;;;;;5049715;28;19913;-82
2022/09/09 00:27:46;;;;;;;;;;;12.50;99.90;;;;;;5036200;28;19931;-80
2022/09/09 00:30:14;;;;;;;;;;;12.50;99.90;;;;;;5035257;28;19966;-81
2022/09/09 00:32:40;;;;;;;;;;;12.50;99.90;;;;;;5051928;28;19939;-81
2022/09/09 00:35:18;;;;;;;;;;;12.50;99.90;;;;;;5052353;28;20391;-81
2022/09/09 00:37:47;;;;;;;;;;;12.40;99.90;;;;;;5048632;28;19917;-81
2022/09/09 00:40:31;;;;;;;;;;;12.50;99.90;;;;;;5033075;28;19921;-79
2022/09/09 00:43:10;;;;;;;;;;;12.50;99.90;;;;;;5041673;28;19917;-80
2022/09/09 00:45:55;;;;;;;;;;;12.40;99.90;;;;;;5051346;28;20344;-82
2022/09/09 00:48:22;;;;;;;;;;;12.40;99.90;;;;;;5046486;28;19979;-81
2022/09/09 00:51:00;;;;;;;;;;;12.40;99.90;;;;;;5050747;28;20007;-80
2022/09/09 00:53:58;;;;;;;;;;;12.40;99.90;;;;;;5033688;28;20039;-81
2022/09/09 00:56:42;;;;;;;;;;;12.40;99.90;;;;;;5040198;28;20488;-81
2022/09/09 00:59:15;;;;;;;;;;;12.40;99.90;;;;;;5034639;28;20575;-80
2022/09/09 01:01:41;;;;;;;;;;;12.40;99.90;;;;;;5049338;28;19917;-81
2022/09/09 01:04:17;;;;;;;;;;;12.40;99.90;;;;;;5016562;28;19917;-80
2022/09/09 01:06:44;;;;;;;;;;;12.40;99.90;;;;;;5042312;28;19917;-80
2022/09/09 01:09:12;;;;;;;;;;;12.40;99.90;;;;;;5049976;28;20010;-80
2022/09/09 01:11:51;;;;;;;;;;;12.30;99.90;;;;;;5045359;28;19912;-80
2022/09/09 01:14:35;;;;;;;;;;;12.30;99.90;;;;;;5049313;28;19913;-80
2022/09/09 01:17:14;;;;;;;;;;;12.30;99.90;;;;;;5033681;28;19917;-81
2022/09/09 01:19:50;;;;;;;;;;;12.30;99.90;;;;;;5033780;28;19924;-80
2022/09/09 01:22:36;;;;;;;;;;;12.20;99.90;;;;;;5029890;28;19960;-80
2022/09/09 01:25:07;;;;;;;;;;;12.10;99.90;;;;;;5030646;28;20474;-81
2022/09/09 01:27:51;;;;;;;;;;;12.10;99.90;;;;;;5035455;28;19921;-80
2022/09/09 01:30:17;;;;;;;;;;;12.00;99.90;;;;;;5029020;28;20011;-80
2022/09/09 01:32:45;;;;;;;;;;;12.00;99.90;;;;;;5043648;28;19913;-81
2022/09/09 01:35:15;;;;;;;;;;;12.00;99.90;;;;;;5020565;28;19909;-80
2022/09/09 01:37:41;;;;;;;;;;;12.00;99.90;;;;;;5032732;28;20356;-80
2022/09/09 01:40:08;;;;;;;;;;;12.00;99.90;;;;;;5009314;28;19979;-80
2022/09/09 01:42:35;;;;;;;;;;;12.00;99.90;;;;;;5032386;28;19924;-81
2022/09/09 01:45:01;;;;;;;;;;;12.00;99.90;;;;;;5049392;28;19916;-80
2022/09/09 01:47:27;;;;;;;;;;;12.00;99.90;;;;;;5049193;28;19912;-82
2022/09/09 01:50:02;;;;;;;;;;;12.00;99.90;;;;;;5034257;28;19956;-82
2022/09/09 01:52:29;;;;;;;;;;;12.00;99.90;;;;;;5028723;28;19917;-81
2022/09/09 01:54:55;;;;;;;;;;;12.00;99.90;;;;;;5031861;28;19921;-81
2022/09/09 01:57:30;;;;;;;;;;;12.00;99.90;;;;;;5033100;28;19920;-80
2022/09/09 02:00:11;;;;;;;;;;;11.90;99.90;;;;;;5047484;28;19923;-80
2022/09/09 02:02:46;;;;;;;;;;;11.90;99.90;;;;;;5049247;28;19966;-81
2022/09/09 02:05:17;;;;;;;;;;;11.90;99.90;;;;;;5019280;28;19914;-82
2022/09/09 02:07:52;;;;;;;;;;;11.90;99.90;;;;;;5032530;28;20293;-80
2022/09/09 02:10:42;;;;;;;;;;;11.90;99.90;;;;;;5048744;28;19920;-80
2022/09/09 02:13:24;;;;;;;;;;;11.90;99.90;;;;;;5037021;28;19912;-80
2022/09/09 02:15:56;;;;;;;;;;;11.90;99.90;;;;;;5047943;28;19920;-80
2022/09/09 02:18:39;;;;;;;;;;;11.90;99.90;;;;;;5030167;28;20014;-80
2022/09/09 02:21:06;;;;;;;;;;;11.80;99.90;;;;;;5047461;28;19948;-81
2022/09/09 02:23:33;;;;;;;;;;;11.80;99.90;;;;;;5030199;28;20363;-82
2022/09/09 02:26:01;;;;;;;;;;;11.80;99.90;;;;;;5049086;28;19919;-81
2022/09/09 02:28:29;;;;;;;;;;;11.80;99.90;;;;;;5040880;28;19913;-80
2022/09/09 02:30:55;;;;;;;;;;;11.90;99.90;;;;;;5044031;28;19963;-80
2022/09/09 02:33:27;;;;;;;;;;;11.80;99.90;;;;;;5025395;28;19919;-80
2022/09/09 02:35:53;;;;;;;;;;;11.80;99.90;;;;;;5049351;28;19921;-81
2022/09/09 02:38:22;;;;;;;;;;;11.80;99.90;;;;;;5031086;28;19925;-81
2022/09/09 02:40:58;;;;;;;;;;;11.80;99.90;;;;;;5021390;28;20709;-81
2022/09/09 02:43:24;;;;;;;;;;;11.70;99.90;;;;;;5038697;28;19962;-81
2022/09/09 02:45:50;;;;;;;;;;;11.70;99.90;;;;;;5023686;28;19927;-81
2022/09/09 02:48:39;;;;;;;;;;;11.80;99.90;;;;;;5050519;28;19960;-81
2022/09/09 02:51:27;;;;;;;;;;;11.70;99.90;;;;;;5033847;28;20289;-82
2022/09/09 02:54:12;;;;;;;;;;;11.70;99.90;;;;;;5049684;28;19913;-80
2022/09/09 02:56:40;;;;;;;;;;;11.80;99.90;;;;;;5049891;28;19927;-81
2022/09/09 02:59:07;;;;;;;;;;;11.80;99.90;;;;;;5047796;28;19924;-81
2022/09/09 03:01:35;;;;;;;;;;;11.70;99.90;;;;;;5025378;28;19952;-79
2022/09/09 03:04:02;;;;;;;;;;;11.60;99.90;;;;;;5019415;28;19918;-82
2022/09/09 03:06:28;;;;;;;;;;;11.60;99.90;;;;;;5027009;28;20189;-81
2022/09/09 03:09:02;;;;;;;;;;;11.70;99.90;;;;;;5030178;28;20000;-81
2022/09/09 03:11:28;;;;;;;;;;;11.60;99.90;;;;;;5047863;28;19978;-81
2022/09/09 03:13:55;;;;;;;;;;;11.70;99.90;;;;;;5013729;28;20369;-80
2022/09/09 03:16:22;;;;;;;;;;;11.70;99.90;;;;;;5032315;28;19928;-82
2022/09/09 03:18:50;;;;;;;;;;;11.70;99.90;;;;;;5032177;28;20016;-80
2022/09/09 03:21:16;;;;;;;;;;;11.70;99.90;;;;;;5031680;28;20360;-82
2022/09/09 03:23:42;;;;;;;;;;;11.70;99.90;;;;;;5032053;28;19924;-80
2022/09/09 03:26:09;;;;;;;;;;;11.80;99.90;;;;;;5048440;28;19917;-81
2022/09/09 03:28:40;;;;;;;;;;;11.80;99.90;;;;;;5017727;28;19920;-81
2022/09/09 03:31:07;;;;;;;;;;;11.90;99.90;;;;;;5044289;28;19921;-81
2022/09/09 03:33:38;;;;;;;;;;;11.90;99.90;;;;;;5029985;28;19947;-80
2022/09/09 03:36:05;;;;;;;;;;;11.90;99.90;;;;;;5012640;28;19929;-81
2022/09/09 03:38:31;;;;;;;;;;;12.00;99.90;;;;;;5012607;28;19920;-80
2022/09/09 03:40:57;;;;;;;;;;;12.00;99.90;;;;;;5019811;28;19909;-81
2022/09/09 03:43:24;;;;;;;;;;;12.10;99.90;;;;;;5015843;28;19925;-80
2022/09/09 03:45:52;;;;;;;;;;;12.10;99.90;;;;;;5034823;28;19924;-80
2022/09/09 03:48:18;;;;;;;;;;;12.20;99.90;;;;;;5029401;28;20582;-81
2022/09/09 03:50:52;;;;;;;;;;;12.20;99.90;;;;;;5032182;28;19916;-81
2022/09/09 03:53:19;;;;;;;;;;;12.20;99.90;;;;;;5047952;28;19970;-80
2022/09/09 03:55:49;;;;;;;;;;;12.30;99.90;;;;;;5048147;28;19975;-81
2022/09/09 03:58:16;;;;;;;;;;;12.30;99.90;;;;;;5031587;28;19913;-80
2022/09/09 04:00:44;;;;;;;;;;;12.40;99.90;;;;;;5032079;28;19916;-80
2022/09/09 04:03:11;;;;;;;;;;;12.40;99.90;;;;;;5045012;28;19913;-81
2022/09/09 04:05:42;;;;;;;;;;;12.40;99.90;;;;;;5040066;28;19921;-80
2022/09/09 04:08:08;;;;;;;;;;;12.40;99.90;;;;;;5028601;28;20154;-80
2022/09/09 04:10:37;;;;;;;;;;;12.50;99.90;;;;;;5049093;28;19920;-80
2022/09/09 04:13:05;;;;;;;;;;;12.50;99.90;;;;;;5036425;28;19948;-80
2022/09/09 04:15:32;;;;;;;;;;;12.50;99.90;;;;;;5020488;28;20331;-81
2022/09/09 04:17:57;;;;;;;;;;;12.60;99.90;;;;;;5035509;28;19917;-81
2022/09/09 04:20:23;;;;;;;;;;;12.50;99.90;;;;;;5051962;28;19921;-80
2022/09/09 04:22:49;;;;;;;;;;;12.50;99.90;;;;;;5047677;28;19918;-81
2022/09/09 04:25:14;;;;;;;;;;;12.60;99.90;;;;;;5051013;28;19913;-81
2022/09/09 04:27:40;;;;;;;;;;;12.50;99.90;;;;;;5050874;28;19917;-81
2022/09/09 04:30:07;;;;;;;;;;;12.50;99.90;;;;;;5018698;28;20176;-82
2022/09/09 04:32:33;;;;;;;;;;;12.50;99.90;;;;;;5034749;28;19971;-81
2022/09/09 04:34:59;;;;;;;;;;;12.50;99.90;;;;;;5018698;28;20316;-81
2022/09/09 04:37:24;;;;;;;;;;;12.40;99.90;;;;;;5031256;28;19921;-81
2022/09/09 04:39:51;;;;;;;;;;;12.40;99.90;;;;;;5031769;28;20389;-80
2022/09/09 04:42:19;;;;;;;;;;;12.40;99.90;;;;;;5034727;28;20046;-79
2022/09/09 04:44:45;;;;;;;;;;;12.40;99.90;;;;;;5038890;28;19917;-80
2022/09/09 04:47:11;;;;;;;;;;;12.40;99.90;;;;;;5052859;28;19920;-80
2022/09/09 04:49:38;;;;;;;;;;;12.40;99.90;;;;;;5051815;28;19917;-80
2022/09/09 04:52:04;;;;;;;;;;;12.30;99.90;;;;;;5046797;28;20392;-81
2022/09/09 04:54:31;;;;;;;;;;;12.40;99.90;;;;;;5030061;28;19928;-81
2022/09/09 04:56:56;;;;;;;;;;;12.40;99.90;;;;;;5017511;28;19925;-80
2022/09/09 04:59:22;;;;;;;;;;;12.40;99.90;;;;;;5034668;28;19956;-82
2022/09/09 05:01:54;;;;;;;;;;;12.50;99.90;;;;;;5012480;28;20278;-81
2022/09/09 05:04:20;;;;;;;;;;;12.50;99.90;;;;;;5029135;28;19971;-81
2022/09/09 05:06:45;;;;;;;;;;;12.50;99.90;;;;;;5047422;28;19917;-80
2022/09/09 05:09:12;;;;;;;;;;;12.50;99.90;;;;;;5022395;28;19917;-80
2022/09/09 05:11:38;;;;;;;;;;;12.50;99.90;;;;;;5034161;28;19917;-81
2022/09/09 05:14:09;;;;;;;;;;;12.50;99.90;;;;;;5020697;28;20284;-81
2022/09/09 05:16:35;;;;;;;;;;;12.60;99.90;;;;;;5065469;28;20400;-80
2022/09/09 05:19:03;;;;;;;;;;;12.60;99.90;;;;;;5050867;28;19934;-81
2022/09/09 05:21:36;;;;;;;;;;;12.70;99.90;;;;;;5034928;28;20535;-80
2022/09/09 05:24:02;;;;;;;;;;;12.60;99.90;;;;;;5030841;28;19933;-80
2022/09/09 05:26:29;;;;;;;;;;;12.60;99.90;;;;;;5039885;28;19921;-80
2022/09/09 05:28:56;;;;;;;;;;;12.60;99.90;;;;;;5028876;28;19924;-80
2022/09/09 05:31:22;;;;;;;;;;;12.70;99.90;;;;;;5040537;28;19953;-80
2022/09/09 05:33:50;;;;;;;;;;;12.70;99.90;;;;;;5034090;28;20008;-81
2022/09/09 05:36:17;;;;;;;;;;;12.80;99.90;;;;;;5042026;28;20154;-80
2022/09/09 05:38:45;;;;;;;;;;;12.80;99.90;;;;;;5034157;28;19916;-81
2022/09/09 05:41:12;;;;;;;;;;;12.80;99.90;;;;;;5046504;28;20018;-79
2022/09/09 05:43:38;;;;;;;;;;;12.80;99.90;;;;;;5033678;28;19951;-81
2022/09/09 05:46:08;;;;;;;;;;;12.90;99.90;;;;;;5047197;28;20004;-81
2022/09/09 05:48:37;;;;;;;;;;;12.90;99.90;;;;;;5055952;28;19921;-80
2022/09/09 05:51:03;;;;;;;;;;;12.90;99.90;;;;;;5050461;28;20296;-81
2022/09/09 05:53:33;;;;;;;;;;;13.00;99.90;;;;;;5053207;28;20094;-81
2022/09/09 05:56:00;;;;;;;;;;;13.00;99.90;;;;;;5037014;28;19925;-80
2022/09/09 05:58:26;;;;;;;;;;;13.10;99.90;;;;;;5031958;28;19924;-80
2022/09/09 06:00:52;;;;;;;;;;;13.10;99.90;;;;;;5034729;28;19917;-81
2022/09/09 06:03:18;;;;;;;;;;;13.10;99.90;;;;;;5034689;28;19913;-80
2022/09/09 06:05:43;;;;;;;;;;;13.20;99.90;;;;;;5033629;28;19917;-81
2022/09/09 06:08:09;;;;;;;;;;;13.30;99.90;;;;;;5018692;28;20552;-82
2022/09/09 06:10:34;;;;;;;;;;;13.50;99.90;;;;;;5014068;28;19917;-79
2022/09/09 06:13:00;;;;;;;;;;;13.70;99.90;;;;;;5034436;28;20506;-81
2022/09/09 06:15:26;;;;;;;;;;;13.80;99.90;;;;;;5043137;28;20124;-80
2022/09/09 06:17:55;;;;;;;;;;;14.10;99.90;;;;;;5050822;28;19921;-81
2022/09/09 06:20:22;;;;;;;;;;;14.30;99.90;;;;;;5042513;28;19917;-81
2022/09/09 06:22:48;;;;;;;;;;;14.50;99.90;;;;;;5017634;28;19920;-81
2022/09/09 06:25:14;;;;;;;;;;;14.80;99.90;;;;;;5030977;28;19917;-81
2022/09/09 06:27:40;;;;;;;;;;;15.00;99.90;;;;;;5007753;28;20047;-81
2022/09/09 06:30:07;;;;;;;;;;;15.20;99.90;;;;;;5033920;28;19917;-80
2022/09/09 06:32:34;;;;;;;;;;;15.30;99.90;;;;;;5034237;28;20351;-82
2022/09/09 06:35:01;;;;;;;;;;;15.30;99.90;;;;;;5033399;28;19917;-82
2022/09/09 06:37:27;;;;;;;;;;;15.40;99.90;;;;;;5028653;28;20616;-81
2022/09/09 06:39:54;;;;;;;;;;;15.70;99.90;;;;;;5033796;28;20455;-81
2022/09/09 06:42:20;;;;;;;;;;;16.00;99.90;;;;;;5048910;28;20403;-81
2022/09/09 06:44:48;;;;;;;;;;;16.30;99.90;;;;;;5049646;28;19917;-80
2022/09/09 06:47:36;;;;;;;;;;;16.70;99.90;;;;;;5050282;28;20003;-82
2022/09/09 06:50:03;;;;;;;;;;;17.00;99.90;;;;;;5023462;28;19956;-82
2022/09/09 06:52:31;;;;;;;;;;;17.00;99.90;;;;;;5032687;28;19916;-81
2022/09/09 06:54:58;;;;;;;;;;;16.90;99.90;;;;;;5049116;28;19928;-80
2022/09/09 06:57:26;;;;;;;;;;;16.80;99.90;;;;;;5028435;28;20291;-80
2022/09/09 06:59:52;;;;;;;;;;;16.60;99.90;;;;;;5029650;28;19956;-81
2022/09/09 07:02:18;;;;;;;;;;;16.30;99.90;;;;;;5018630;28;19921;-82
2022/09/09 07:04:44;;;;;;;;;;;16.00;99.90;;;;;;5022937;28;19924;-80
2022/09/09 07:07:12;;;;;;;;;;;15.70;99.90;;;;;;5049091;28;19917;-81
2022/09/09 07:09:37;;;;;;;;;;;15.50;99.90;;;;;;5032838;28;19917;-81
2022/09/09 07:12:05;;;;;;;;;;;15.30;99.90;;;;;;5028422;28;20523;-81
2022/09/09 07:14:35;;;;;;;;;;;15.20;99.90;;;;;;5044290;28;20631;-80
2022/09/09 07:17:03;;;;;;;;;;;15.20;99.90;;;;;;5048554;28;19921;-80
2022/09/09 07:19:35;;;;;;;;;;;15.20;99.90;;;;;;5032511;28;19962;-81
2022/09/09 07:22:03;;;;;;;;;;;15.10;99.90;;;;;;5048062;28;19970;-81
2022/09/09 07:24:30;;;;;;;;;;;15.10;99.90;;;;;;5014054;28;20258;-81
2022/09/09 07:26:55;;;;;;;;;;;15.20;99.90;;;;;;5027326;28;20340;-81
2022/09/09 07:29:21;;;;;;;;;;;15.20;99.90;;;;;;5054752;28;19963;-81
2022/09/09 07:31:48;;;;;;;;;;;15.40;99.90;;;;;;5038494;28;19923;-82
2022/09/09 07:34:18;;;;;;;;;;;15.50;99.90;;;;;;5033902;28;19917;-81
2022/09/09 07:36:45;;;;;;;;;;;15.60;99.90;;;;;;5015783;28;20001;-80
2022/09/09 07:39:17;;;;;;;;;;;15.60;99.90;;;;;;5050441;28;19912;-81
2022/09/09 07:41:47;;;;;;;;;;;15.70;99.90;;;;;;5033661;28;19935;-81
2022/09/09 07:44:16;;;;;;;;;;;15.70;99.90;;;;;;5064071;28;19997;-81
2022/09/09 07:46:45;;;;;;;;;;;15.60;99.90;;;;;;5042065;28;19915;-82
2022/09/09 07:49:14;;;;;;;;;;;15.70;99.90;;;;;;5054328;28;19932;-81
2022/09/09 07:51:42;;;;;;;;;;;15.70;99.90;;;;;;5044756;28;19913;-81
2022/09/09 07:54:09;;;;;;;;;;;15.90;99.90;;;;;;5040790;28;19989;-81
2022/09/09 07:56:37;;;;;;;;;;;16.00;99.90;;;;;;5048162;28;19920;-81
2022/09/09 07:59:06;;;;;;;;;;;16.10;99.90;;;;;;5028631;28;19985;-81
2022/09/09 08:01:37;;;;;;;;;;;16.10;99.90;;;;;;5052006;28;19920;-81
2022/09/09 08:04:03;;;;;;;;;;;16.30;99.90;;;;;;5053271;28;19913;-81
2022/09/09 08:06:35;;;;;;;;;;;16.70;99.90;;;;;;5047946;28;20413;-81
2022/09/09 08:09:00;;;;;;;;;;;16.90;99.90;;;;;;5053830;28;19976;-81
2022/09/09 08:11:28;;;;;;;;;;;17.10;99.90;;;;;;5053380;28;20488;-81
2022/09/09 08:13:54;;;;;;;;;;;17.40;99.90;;;;;;5020745;28;19956;-80
2022/09/09 08:16:21;;;;;;;;;;;17.80;99.90;;;;;;5035961;28;19956;-81
2022/09/09 08:18:49;;;;;;;;;;;18.00;99.90;;;;;;5036006;28;19955;-81
2022/09/09 08:21:17;;;;;;;;;;;18.30;99.90;;;;;;5053413;28;19951;-81
2022/09/09 08:23:45;;;;;;;;;;;18.50;99.90;;;;;;5052539;28;19913;-82
2022/09/09 08:26:11;;;;;;;;;;;18.80;99.90;;;;;;5049163;28;19945;-81
2022/09/09 08:28:37;;;;;;;;;;;18.80;99.90;;;;;;5044587;28;19924;-81
2022/09/09 08:31:10;;;;;;;;;;;18.90;99.90;;;;;;5035009;28;20332;-81
2022/09/09 08:33:38;;;;;;;;;;;19.00;99.90;;;;;;5035518;28;20458;-81
2022/09/09 08:36:04;;;;;;;;;;;19.10;99.90;;;;;;5051713;28;20482;-81
2022/09/09 08:38:30;;;;;;;;;;;19.10;99.90;;;;;;5036204;28;19913;-81
2022/09/09 08:41:00;;;;;;;;;;;19.10;99.90;;;;;;5032243;28;19951;-81
2022/09/09 08:43:28;;;;;;;;;;;19.00;99.90;;;;;;5043181;28;19956;-81
2022/09/09 08:46:07;;;;;;;;;;;19.00;99.90;;;;;;5051042;28;19917;-81
2022/09/09 08:48:43;;;;;;;;;;;18.80;99.90;;;;;;5034927;28;20438;-81
2022/09/09 08:51:10;;;;;;;;;;;18.80;99.90;;;;;;5024341;28;19940;-81
2022/09/09 08:53:40;;;;;;;;;;;18.80;99.90;;;;;;5047366;28;20546;-81
2022/09/09 08:56:11;;;;;;;;;;;18.80;99.90;;;;;;5050436;28;20016;-81
2022/09/09 08:58:48;;;;;;;;;;;18.70;99.90;;;;;;5051148;28;20269;-81
2022/09/09 09:01:21;;;;;;;;;;;18.60;99.90;;;;;;5032016;28;19917;-81
2022/09/09 09:04:00;;;;;;;;;;;18.50;99.90;;;;;;5035655;28;19916;-82
2022/09/09 09:06:29;;;;;;;;;;;18.40;99.90;;;;;;5051735;28;19916;-81
2022/09/09 09:09:14;;;;;;;;;;;18.40;99.90;;;;;;5048368;28;20332;-81
2022/09/09 09:11:46;;;;;;;;;;;18.30;99.90;;;;;;5047233;28;19920;-81
2022/09/09 09:14:23;;;;;;;;;;;18.30;99.90;;;;;;5050658;28;19920;-80
2022/09/09 09:16:49;;;;;;;;;;;18.30;99.90;;;;;;5036815;28;19921;-80
2022/09/09 09:19:16;;;;;;;;;;;18.30;99.90;;;;;;5035565;28;19959;-81
2022/09/09 09:22:03;;;;;;;;;;;18.40;99.90;;;;;;5039090;28;19923;-81
2022/09/09 09:24:47;;;;;;;;;;;18.50;99.90;;;;;;5034146;28;19944;-80
2022/09/09 09:27:25;;;;;;;;;;;18.80;99.90;;;;;;5049550;28;20015;-81
2022/09/09 09:29:53;;;;;;;;;;;18.90;99.90;;;;;;5061818;28;20394;-81
2022/09/09 09:32:20;;;;;;;;;;;19.10;99.90;;;;;;5053580;28;20047;-81
2022/09/09 09:34:51;;;;;;;;;;;19.20;99.90;;;;;;5034892;28;19917;-81
2022/09/09 09:37:25;;;;;;;;;;;19.30;99.90;;;;;;5059281;28;19973;-81
2022/09/09 09:39:50;;;;;;;;;;;19.40;99.90;;;;;;5056686;28;19924;-80
2022/09/09 09:42:17;;;;;;;;;;;19.40;99.90;;;;;;5033492;28;20025;-81
2022/09/09 09:44:46;;;;;;;;;;;19.40;99.90;;;;;;5011523;28;20445;-80
2022/09/09 09:47:19;;;;;;;;;;;19.40;99.90;;;;;;5056329;28;19956;-81
2022/09/09 09:49:53;;;;;;;;;;;19.50;99.90;;;;;;5047342;28;20336;-80
2022/09/09 09:52:21;;;;;;;;;;;19.60;99.90;;;;;;5060191;28;19913;-81
2022/09/09 09:54:47;;;;;;;;;;;19.60;99.90;;;;;;5052325;28;19987;-81
2022/09/09 09:57:14;;;;;;;;;;;19.70;99.90;;;;;;5052007;28;20547;-81
2022/09/09 09:59:42;;;;;;;;;;;19.80;99.90;;;;;;5046607;28;19916;-80
2022/09/09 10:02:26;;;;;;;;;;;19.90;99.90;;;;;;5051380;28;19913;-81
2022/09/09 10:05:12;;;;;;;;;;;20.00;99.90;;;;;;5034620;28;19952;-80
2022/09/09 10:07:38;;;;;;;;;;;20.00;99.90;;;;;;5047128;28;19920;-81
2022/09/09 10:10:05;;;;;;;;;;;20.10;99.90;;;;;;5057851;28;19913;-80
2022/09/09 10:12:37;;;;;;;;;;;20.10;99.90;;;;;;5054987;28;19912;-80
2022/09/09 10:15:18;;;;;;;;;;;20.00;99.90;;;;;;5032298;28;19920;-81
2022/09/09 10:17:44;;;;;;;;;;;20.00;99.90;;;;;;5051196;28;19916;-81
2022/09/09 10:20:10;;;;;;;;;;;19.90;99.90;;;;;;5051992;28;19917;-80
2022/09/09 10:22:35;;;;;;;;;;;19.80;99.90;;;;;;5046856;28;19913;-81
2022/09/09 10:25:05;;;;;;;;;;;19.90;99.90;;;;;;5048134;28;19909;-81
2022/09/09 10:27:54;;;;;;;;;;;19.90;99.90;;;;;;5049845;28;19969;-81
2022/09/09 10:30:22;;;;;;;;;;;19.80;99.90;;;;;;5051129;28;19909;-81
2022/09/09 10:32:50;;;;;;;;;;;19.90;99.90;;;;;;5029314;28;19913;-81
2022/09/09 10:35:22;;;;;;;;;;;20.00;99.90;;;;;;5040219;28;19925;-80
2022/09/09 10:38:06;;;;;;;;;;;20.00;99.90;;;;;;5049662;28;19994;-81
2022/09/09 10:40:42;;;;;;;;;;;20.20;99.90;;;;;;5051399;28;19955;-81
2022/09/09 10:43:10;;;;;;;;;;;20.30;99.90;;;;;;5050917;28;20297;-81
2022/09/09 10:45:41;;;;;;;;;;;20.30;99.90;;;;;;5049088;28;19909;-81
2022/09/09 10:48:20;;;;;;;;;;;20.30;99.90;;;;;;5041950;28;19924;-80
2022/09/09 10:50:55;;;;;;;;;;;20.20;99.90;;;;;;5036264;28;19999;-81
2022/09/09 10:53:39;;;;;;;;;;;20.20;99.90;;;;;;5050178;28;19920;-81
2022/09/09 10:56:07;;;;;;;;;;;20.30;99.90;;;;;;5048735;28;20272;-81
2022/09/09 10:58:40;;;;;;;;;;;20.40;99.90;;;;;;5048955;28;19917;-81
2022/09/09 11:01:09;;;;;;;;;;;20.40;99.90;;;;;;5049271;28;19916;-81
2022/09/09 11:03:37;;;;;;;;;;;20.40;99.90;;;;;;5050130;28;19919;-80
2022/09/09 11:06:06;;;;;;;;;;;20.50;99.90;;;;;;5049719;28;20364;-81
2022/09/09 11:08:34;;;;;;;;;;;20.50;99.90;;;;;;5049096;28;20022;-80
2022/09/09 11:11:00;;;;;;;;;;;20.50;99.90;;;;;;5049107;28;20099;-81
2022/09/09 11:13:39;;;;;;;;;;;20.50;99.90;;;;;;5048915;28;19996;-81
2022/09/09 11:16:25;;;;;;;;;;;20.50;99.90;;;;;;5044242;28;19917;-82
2022/09/09 11:18:54;;;;;;;;;;;20.50;99.90;;;;;;5042752;28;20001;-81
2022/09/09 11:21:27;;;;;;;;;;;20.50;99.90;;;;;;5018814;28;19917;-82
2022/09/09 11:23:55;;;;;;;;;;;20.40;99.90;;;;;;5047423;28;19920;-81
2022/09/09 11:26:28;;;;;;;;;;;20.30;99.90;;;;;;5031183;28;19913;-83
2022/09/09 11:29:04;;;;;;;;;;;20.20;99.90;;;;;;5050180;28;19913;-82
2022/09/09 11:31:33;;;;;;;;;;;20.20;99.90;;;;;;5051289;28;19912;-81
2022/09/09 11:34:18;;;;;;;;;;;20.30;99.90;;;;;;5048542;28;20586;-82
2022/09/09 11:37:04;;;;;;;;;;;20.40;99.90;;;;;;5024666;28;19920;-81
2022/09/09 11:39:30;;;;;;;;;;;20.40;99.90;;;;;;5043398;28;19913;-81
2022/09/09 11:42:06;;;;;;;;;;;20.60;99.90;;;;;;5048294;28;19923;-81
2022/09/09 11:44:32;;;;;;;;;;;20.50;99.90;;;;;;5042690;28;19920;-81
2022/09/09 11:46:58;;;;;;;;;;;20.60;99.90;;;;;;5031771;28;19917;-81
2022/09/09 11:49:42;;;;;;;;;;;20.60;99.90;;;;;;5046648;28;19925;-81
2022/09/09 11:52:31;;;;;;;;;;;20.60;99.90;;;;;;5044417;28;19919;-81
2022/09/09 11:54:57;;;;;;;;;;;20.50;99.90;;;;;;5048540;28;19998;-82
2022/09/09 11:57:25;;;;;;;;;;;20.50;99.90;;;;;;5031653;28;19959;-81
2022/09/09 11:59:52;;;;;;;;;;;20.60;99.90;;;;;;5039127;28;19921;-81
2022/09/09 12:02:26;;;;;;;;;;;20.70;99.90;;;;;;5030855;28;19917;-81
2022/09/09 12:05:05;;;;;;;;;;;20.80;99.90;;;;;;5029491;28;19917;-81
2022/09/09 12:07:42;;;;;;;;;;;20.80;99.90;;;;;;5046097;28;20223;-81
2022/09/09 12:10:08;;;;;;;;;;;20.80;99.90;;;;;;5041457;28;19924;-80
2022/09/09 12:12:37;;;;;;;;;;;20.70;99.90;;;;;;5049438;28;20464;-81
2022/09/09 12:15:17;;;;;;;;;;;20.70;99.90;;;;;;5049078;28;19991;-81
2022/09/09 12:17:44;;;;;;;;;;;20.60;99.90;;;;;;5029455;28;19917;-82
2022/09/09 12:20:10;;;;;;;;;;;20.50;99.90;;;;;;5044068;28;20007;-81
2022/09/09 12:22:45;;;;;;;;;;;20.40;99.90;;;;;;5040029;28;19964;-81
2022/09/09 12:25:32;;;;;;;;;;;20.40;99.90;;;;;;5029464;28;19917;-81
2022/09/09 12:28:17;;;;;;;;;;;20.40;99.90;;;;;;5040491;28;19917;-80
2022/09/09 12:30:48;;;;;;;;;;;20.60;99.90;;;;;;5044195;28;19948;-81
2022/09/09 12:33:16;;;;;;;;;;;20.80;99.90;;;;;;5036200;28;19920;-80
2022/09/09 12:35:43;;;;;;;;;;;20.90;99.90;;;;;;5048242;28;19917;-81
2022/09/09 12:38:12;;;;;;;;;;;21.00;99.90;;;;;;5055345;28;19923;-81
2022/09/09 12:40:39;;;;;;;;;;;21.10;99.90;;;;;;5044540;28;19992;-81
2022/09/09 12:43:18;;;;;;;;;;;21.10;99.90;;;;;;5042658;28;19928;-81
2022/09/09 12:45:45;;;;;;;;;;;21.10;99.90;;;;;;5025064;28;19923;-81
2022/09/09 12:48:12;;;;;;;;;;;21.10;99.90;;;;;;5044746;28;19925;-81
2022/09/09 12:50:43;;;;;;;;;;;21.00;99.90;;;;;;5025548;28;19920;-81
2022/09/09 12:53:29;;;;;;;;;;;21.00;99.90;;;;;;5028011;28;19917;-81
2022/09/09 12:56:15;;;;;;;;;;;20.90;99.90;;;;;;5038459;28;19923;-81
2022/09/09 12:58:46;;;;;;;;;;;20.90;99.90;;;;;;5050435;28;19920;-81
2022/09/09 13:01:20;;;;;;;;;;;20.90;99.90;;;;;;5052344;28;20384;-81
2022/09/09 13:03:47;;;;;;;;;;;20.90;99.90;;;;;;5046664;28;19913;-81
2022/09/09 13:06:17;;;;;;;;;;;20.90;99.90;;;;;;5019716;28;19917;-81
2022/09/09 13:08:43;;;;;;;;;;;20.90;99.90;;;;;;5035516;28;19913;-81
2022/09/09 13:11:12;;;;;;;;;;;20.80;99.90;;;;;;5055330;28;19921;-81
2022/09/09 13:13:39;;;;;;;;;;;20.70;99.90;;;;;;5036252;28;20714;-80
2022/09/09 13:16:08;;;;;;;;;;;20.80;99.90;;;;;;5038448;28;19916;-82
2022/09/09 13:18:40;;;;;;;;;;;20.90;99.50;;;;;;5041955;28;19909;-81
2022/09/09 13:21:06;;;;;;;;;;;20.90;97.50;;;;;;5038528;28;20361;-81
2022/09/09 13:23:33;;;;;;;;;;;21.00;99.90;;;;;;5005923;28;19924;-81
2022/09/09 13:26:04;;;;;;;;;;;21.00;99.90;;;;;;5034656;28;19942;-82
2022/09/09 13:28:30;;;;;;;;;;;20.90;99.90;;;;;;5049397;28;19928;-81
2022/09/09 13:31:04;;;;;;;;;;;20.80;99.90;;;;;;5051378;28;19920;-81
2022/09/09 13:33:32;;;;;;;;;;;20.80;99.90;;;;;;5059325;28;19927;-80
2022/09/09 13:35:58;;;;;;;;;;;20.80;99.90;;;;;;5047800;28;19975;-82
2022/09/09 13:38:27;;;;;;;;;;;20.70;99.90;;;;;;5050369;28;19912;-82
2022/09/09 13:41:03;;;;;;;;;;;20.60;99.90;;;;;;5033178;28;19913;-82
2022/09/09 13:43:29;;;;;;;;;;;20.50;99.90;;;;;;5054401;28;19920;-82
2022/09/09 13:46:00;;;;;;;;;;;20.30;99.90;;;;;;5057226;28;20373;-83
2022/09/09 13:48:26;;;;;;;;;;;20.20;99.90;;;;;;5039049;28;20365;-80
2022/09/09 13:50:56;;;;;;;;;;;20.00;99.90;;;;;;5033932;28;20028;-81
2022/09/09 13:53:22;;;;;;;;;;;19.90;99.90;;;;;;5051000;28;19917;-81
2022/09/09 13:55:47;;;;;;;;;;;19.80;99.90;;;;;;5033269;28;19928;-81
2022/09/09 13:58:21;;;;;;;;;;;19.70;99.90;;;;;;5047093;28;19916;-80
2022/09/09 14:00:47;;;;;;;;;;;19.80;99.90;;;;;;5043093;28;19958;-81
2022/09/09 14:03:13;;;;;;;;;;;19.80;99.90;;;;;;5049053;28;19920;-81
2022/09/09 14:05:39;;;;;;;;;;;19.70;99.90;;;;;;5038551;28;19913;-81
2022/09/09 14:08:05;;;;;;;;;;;19.80;99.90;;;;;;5048336;28;19970;-80
2022/09/09 14:10:31;;;;;;;;;;;19.70;99.90;;;;;;5049389;28;19931;-80
2022/09/09 14:12:57;;;;;;;;;;;19.70;99.90;;;;;;5032590;28;20019;-81
2022/09/09 14:15:22;;;;;;;;;;;19.70;99.90;;;;;;5050222;28;19913;-80
2022/09/09 14:17:48;;;;;;;;;;;19.70;99.90;;;;;;5047036;28;19975;-80
2022/09/09 14:20:17;;;;;;;;;;;19.50;99.90;;;;;;5050454;28;19917;-80
2022/09/09 14:22:43;;;;;;;;;;;19.40;99.90;;;;;;5063946;28;19952;-81
2022/09/09 14:25:09;;;;;;;;;;;19.30;99.90;;;;;;5060985;28;19912;-81
2022/09/09 14:27:35;;;;;;;;;;;19.20;99.90;;;;;;5031999;28;20291;-81
2022/09/09 14:30:00;;;;;;;;;;;19.10;99.90;;;;;;5009507;28;19936;-81
2022/09/09 14:32:26;;;;;;;;;;;19.20;99.90;;;;;;5045579;28;19921;-81
2022/09/09 14:34:52;;;;;;;;;;;19.10;99.90;;;;;;5046381;28;19917;-81